RJCK(METAR)
05/26 17:00
METAR RJCK 260800Z 15005KT 120V190 9999 FEW010 SCT060 13/09 Q1006
RMK 1ST010 3CU060 A2972=
戻る
トップページへ戻る
IMOC Co,.Ltd.